createdAt,value
2023-03-27T00:02:15.082Z,2.60
2023-03-27T00:04:35.285Z,2.63
2023-03-27T00:06:55.336Z,3.35
2023-03-27T00:09:16.749Z,2.60
2023-03-27T00:11:37.077Z,6.05
2023-03-27T00:13:57.122Z,3.55
2023-03-27T00:16:17.582Z,3.55
2023-03-27T00:18:38.805Z,2.80
2023-03-27T00:21:00.157Z,4.70
2023-03-27T00:23:20.301Z,4.35
2023-03-27T00:25:41.483Z,4.18
2023-03-27T00:28:02.116Z,1.80
2023-03-27T00:30:22.893Z,2.35
2023-03-27T00:32:43.108Z,3.17
2023-03-27T00:35:03.884Z,3.20
2023-03-27T00:37:24.155Z,3.85
2023-03-27T00:39:49.262Z,3.63
2023-03-27T00:42:13.156Z,3.13
2023-03-27T00:44:33.784Z,2.95
2023-03-27T00:46:56.242Z,4.13
2023-03-27T00:49:16.707Z,3.47
2023-03-27T00:51:37.873Z,3.13
2023-03-27T00:53:58.872Z,2.80
2023-03-27T00:56:19.394Z,2.55
2023-03-27T00:58:50.908Z,3.53
2023-03-27T01:01:13.433Z,3.22
2023-03-27T01:03:34.040Z,3.70
2023-03-27T01:05:54.719Z,4.47
2023-03-27T01:08:15.876Z,4.40
2023-03-27T01:10:41.855Z,3.67
2023-03-27T01:13:01.981Z,4.45
2023-03-27T01:15:23.075Z,4.15
2023-03-27T01:17:52.541Z,3.38
2023-03-27T01:20:31.804Z,3.38
2023-03-27T01:23:10.528Z,2.95
2023-03-27T01:25:49.993Z,4.53
2023-03-27T01:28:29.304Z,3.63
2023-03-27T01:30:49.715Z,3.42
2023-03-27T01:33:09.973Z,3.20
2023-03-27T01:35:42.621Z,3.70
2023-03-27T01:38:15.220Z,4.05
2023-03-27T01:40:38.645Z,2.80
2023-03-27T01:43:07.962Z,3.42
2023-03-27T01:45:34.507Z,3.35
2023-03-27T01:48:00.559Z,3.25
2023-03-27T01:50:29.538Z,4.32
2023-03-27T01:52:55.534Z,3.42
2023-03-27T01:55:18.513Z,2.92
2023-03-27T01:57:48.873Z,3.40
2023-03-27T02:00:17.477Z,3.92
2023-03-27T02:02:40.182Z,3.13
2023-03-27T02:05:00.549Z,3.42
2023-03-27T02:07:25.282Z,3.22
2023-03-27T02:09:48.671Z,3.05
2023-03-27T02:12:12.074Z,3.15
2023-03-27T02:16:57.714Z,2.33
2023-03-27T02:19:22.573Z,2.53
2023-03-27T02:21:42.609Z,5.28
2023-03-27T02:24:05.226Z,3.33
2023-03-27T02:26:25.134Z,2.95
2023-03-27T02:29:04.570Z,3.45
2023-03-27T02:31:37.701Z,3.35
2023-03-27T02:34:16.848Z,2.80
2023-03-27T02:36:46.243Z,4.60
2023-03-27T02:39:22.880Z,3.25
2023-03-27T02:41:46.355Z,2.83
2023-03-27T02:44:16.504Z,2.88
2023-03-27T02:46:44.658Z,3.03
2023-03-27T02:49:10.103Z,3.30
2023-03-27T02:51:41.821Z,3.53
2023-03-27T02:54:08.641Z,3.08
2023-03-27T02:56:34.063Z,3.05
2023-03-27T02:58:56.840Z,3.97
2023-03-27T03:01:19.039Z,3.30
2023-03-27T03:03:52.954Z,3.55
2023-03-27T03:06:13.648Z,3.92
2023-03-27T03:08:37.489Z,2.90
2023-03-27T03:11:05.461Z,3.88
2023-03-27T03:13:25.514Z,2.90
2023-03-27T03:15:45.637Z,3.53
2023-03-27T03:18:06.680Z,2.88
2023-03-27T03:20:29.048Z,4.00
2023-03-27T03:22:49.317Z,2.25
2023-03-27T03:25:12.293Z,3.22
2023-03-27T03:27:33.462Z,4.18
2023-03-27T03:29:56.005Z,3.20
2023-03-27T03:32:16.274Z,3.50
2023-03-27T03:34:36.253Z,3.78
2023-03-27T03:36:56.619Z,4.05
2023-03-27T03:39:17.619Z,2.72
2023-03-27T03:41:38.115Z,3.47
2023-03-27T03:43:58.204Z,3.90
2023-03-27T03:46:18.628Z,3.47
2023-03-27T03:48:38.991Z,4.40
2023-03-27T03:50:59.502Z,4.20
2023-03-27T03:53:21.008Z,2.97
2023-03-27T03:55:41.238Z,4.03
2023-03-27T03:58:01.766Z,2.63
2023-03-27T04:00:22.312Z,3.17
2023-03-27T04:02:42.908Z,3.80
2023-03-27T04:05:08.787Z,3.47
2023-03-27T04:07:31.132Z,3.08
2023-03-27T04:09:51.884Z,3.38
2023-03-27T04:12:12.351Z,2.90
2023-03-27T04:14:32.609Z,2.65
2023-03-27T04:16:52.819Z,3.20
2023-03-27T04:19:13.022Z,3.83
2023-03-27T04:21:33.275Z,3.05
2023-03-27T04:23:53.186Z,3.80
2023-03-27T04:26:15.055Z,2.75
2023-03-27T04:28:35.290Z,3.20
2023-03-27T04:30:55.604Z,3.08
2023-03-27T04:33:19.076Z,4.00
2023-03-27T04:35:39.593Z,3.13
2023-03-27T04:38:02.002Z,3.00
2023-03-27T04:40:24.576Z,3.45
2023-03-27T04:42:44.664Z,2.88
2023-03-27T04:45:05.063Z,3.05
2023-03-27T04:47:25.468Z,3.00
2023-03-27T04:49:50.205Z,3.15
2023-03-27T04:52:13.420Z,2.70
2023-03-27T04:54:33.605Z,4.32
2023-03-27T04:56:54.158Z,2.90
2023-03-27T04:59:15.035Z,3.78
2023-03-27T05:01:35.686Z,2.17
2023-03-27T05:03:55.942Z,2.85
2023-03-27T05:06:16.407Z,2.55
2023-03-27T05:08:36.614Z,2.70
2023-03-27T05:10:56.952Z,3.40
2023-03-27T05:13:17.503Z,2.60
2023-03-27T05:15:38.337Z,2.72
2023-03-27T05:17:58.318Z,3.33
2023-03-27T05:20:18.921Z,2.05
2023-03-27T05:22:39.413Z,3.53
2023-03-27T05:24:59.587Z,2.90
2023-03-27T05:27:19.741Z,5.95
2023-03-27T05:29:47.015Z,3.10
2023-03-27T05:32:08.118Z,3.08
2023-03-27T05:34:28.095Z,2.95
2023-03-27T05:36:48.627Z,4.15
2023-03-27T05:39:08.776Z,3.58
2023-03-27T05:41:29.105Z,4.40
2023-03-27T05:43:51.246Z,4.50
2023-03-27T05:46:11.487Z,4.80
2023-03-27T05:48:31.700Z,4.55
2023-03-27T05:50:51.894Z,3.42
2023-03-27T05:53:12.181Z,4.32
2023-03-27T05:55:32.421Z,5.35
2023-03-27T05:57:53.091Z,5.32
2023-03-27T06:00:13.530Z,6.95
2023-03-27T06:02:34.025Z,13.35
2023-03-27T06:04:54.455Z,9.38
2023-03-27T06:07:15.284Z,9.27
2023-03-27T06:09:35.729Z,9.75
2023-03-27T06:11:56.797Z,7.85
2023-03-27T06:14:16.742Z,11.80
2023-03-27T06:16:37.376Z,10.75
2023-03-27T06:18:58.303Z,10.57
2023-03-27T06:21:18.561Z,12.00
2023-03-27T06:23:38.854Z,8.25
2023-03-27T06:25:59.252Z,7.75
2023-03-27T06:28:20.154Z,6.57
2023-03-27T06:30:40.602Z,5.65
2023-03-27T06:33:02.236Z,4.18
2023-03-27T06:35:23.082Z,5.07
2023-03-27T06:37:46.153Z,5.10
2023-03-27T06:40:09.668Z,4.07
2023-03-27T06:42:30.102Z,4.25
2023-03-27T06:44:50.324Z,4.60
2023-03-27T06:47:10.376Z,3.88
2023-03-27T06:49:30.347Z,5.00
2023-03-27T06:51:50.567Z,4.32
2023-03-27T06:54:12.832Z,5.90
2023-03-27T06:56:33.153Z,4.93
2023-03-27T06:58:53.298Z,3.90
2023-03-27T07:01:13.814Z,4.28
2023-03-27T07:03:34.258Z,4.18
2023-03-27T07:05:54.727Z,3.47
2023-03-27T07:10:39.565Z,2.70
2023-03-27T07:12:59.914Z,5.25
2023-03-27T07:15:20.828Z,4.55
2023-03-27T07:17:48.538Z,4.22
2023-03-27T07:20:10.650Z,4.60
2023-03-27T07:22:30.996Z,3.58
2023-03-27T07:24:51.164Z,5.72
2023-03-27T07:27:11.469Z,4.82
2023-03-27T07:29:32.260Z,3.55
2023-03-27T07:31:56.848Z,2.47
2023-03-27T07:34:20.111Z,2.63
2023-03-27T07:36:40.274Z,4.43
2023-03-27T07:39:00.684Z,2.55
2023-03-27T07:41:22.082Z,2.60
2023-03-27T07:43:42.051Z,2.03
2023-03-27T07:46:02.615Z,2.65
2023-03-27T07:48:23.109Z,1.88
2023-03-27T07:50:44.318Z,2.47
2023-03-27T07:53:08.107Z,2.28
2023-03-27T07:55:28.953Z,1.75
2023-03-27T07:57:59.933Z,1.70
2023-03-27T08:00:24.658Z,1.90
2023-03-27T08:02:45.869Z,2.03
2023-03-27T08:05:07.798Z,2.00
2023-03-27T08:07:29.529Z,1.98
2023-03-27T08:09:49.988Z,1.58
2023-03-27T08:12:09.897Z,1.92
2023-03-27T08:14:30.381Z,1.30
2023-03-27T08:16:50.851Z,1.60
2023-03-27T08:19:11.425Z,1.55
2023-03-27T08:21:32.640Z,1.45
2023-03-27T08:23:55.675Z,1.48
2023-03-27T08:26:17.542Z,1.55
2023-03-27T08:28:38.312Z,1.30
2023-03-27T08:31:02.636Z,1.52
2023-03-27T08:33:23.775Z,1.63
2023-03-27T08:35:47.312Z,1.35
2023-03-27T08:38:16.640Z,1.52
2023-03-27T08:40:48.504Z,1.25
2023-03-27T08:43:13.818Z,1.75
2023-03-27T08:45:36.838Z,1.20
2023-03-27T08:48:00.995Z,1.30
2023-03-27T08:50:32.901Z,1.20
2023-03-27T08:52:53.042Z,1.30
2023-03-27T08:55:18.756Z,1.17
2023-03-27T08:57:38.758Z,1.10
2023-03-27T08:59:59.944Z,1.20
2023-03-27T09:02:36.865Z,1.10
2023-03-27T09:05:05.788Z,1.50
2023-03-27T09:07:42.194Z,1.20
2023-03-27T09:10:17.247Z,1.30
2023-03-27T09:12:49.869Z,1.75
2023-03-27T09:15:12.428Z,1.23
2023-03-27T09:17:36.761Z,1.20
2023-03-27T09:20:00.329Z,1.33
2023-03-27T09:22:25.834Z,1.23
2023-03-27T09:24:50.727Z,1.05
2023-03-27T09:27:28.740Z,1.10
2023-03-27T09:30:07.777Z,1.00
2023-03-27T09:32:27.770Z,1.23
2023-03-27T09:34:54.681Z,1.70
2023-03-27T09:37:17.532Z,1.80
2023-03-27T09:41:59.577Z,1.25
2023-03-27T09:44:24.698Z,1.33
2023-03-27T09:46:46.379Z,1.45
2023-03-27T09:49:13.212Z,1.33
2023-03-27T09:51:50.556Z,1.20
2023-03-27T09:54:14.029Z,1.10
2023-03-27T09:56:55.206Z,1.55
2023-03-27T09:59:20.952Z,1.05
2023-03-27T10:01:46.331Z,1.10
2023-03-27T10:04:12.295Z,1.10
2023-03-27T10:06:43.264Z,1.30
2023-03-27T10:09:12.065Z,1.05
2023-03-27T10:11:34.906Z,1.10
2023-03-27T10:13:55.005Z,1.10
2023-03-27T10:16:18.904Z,1.42
2023-03-27T10:18:42.822Z,1.20
2023-03-27T10:21:09.200Z,1.00
2023-03-27T10:23:41.358Z,2.03
2023-03-27T10:26:02.458Z,1.00
2023-03-27T10:28:30.253Z,1.10
2023-03-27T10:31:00.688Z,1.00
2023-03-27T10:33:31.577Z,1.35
2023-03-27T10:35:51.733Z,0.90
2023-03-27T10:38:13.651Z,1.10
2023-03-27T10:40:35.934Z,1.10
2023-03-27T10:42:57.361Z,1.00
2023-03-27T10:45:19.949Z,0.90
2023-03-27T10:47:46.116Z,1.00
2023-03-27T10:50:07.122Z,0.90
2023-03-27T10:52:33.682Z,1.10
2023-03-27T10:55:14.025Z,1.00
2023-03-27T10:57:34.306Z,1.23
2023-03-27T11:00:17.487Z,1.00
2023-03-27T11:02:43.022Z,1.10
2023-03-27T11:05:06.195Z,1.27
2023-03-27T11:07:33.072Z,1.00
2023-03-27T11:09:57.012Z,0.90
2023-03-27T11:12:17.958Z,1.10
2023-03-27T11:14:51.356Z,1.10
2023-03-27T11:19:46.818Z,1.10
2023-03-27T11:22:13.505Z,1.20
2023-03-27T11:24:37.709Z,1.00
2023-03-27T11:27:04.012Z,1.42
2023-03-27T11:29:29.365Z,1.08
2023-03-27T11:31:51.167Z,1.10
2023-03-27T11:34:31.739Z,1.02
2023-03-27T11:36:54.686Z,1.00
2023-03-27T11:41:35.616Z,0.98
2023-03-27T11:43:55.564Z,1.00
2023-03-27T11:46:23.316Z,1.00
2023-03-27T11:48:46.598Z,1.00
2023-03-27T11:51:20.073Z,0.98
2023-03-27T11:53:41.338Z,1.00
2023-03-27T11:56:01.329Z,0.95
2023-03-27T11:58:22.998Z,0.90
2023-03-27T12:00:49.503Z,1.17
2023-03-27T12:03:09.542Z,0.90
2023-03-27T12:05:47.971Z,0.90
2023-03-27T12:08:28.601Z,1.00
2023-03-27T12:10:50.378Z,1.20
2023-03-27T12:13:28.677Z,1.45
2023-03-27T12:16:14.978Z,1.10
2023-03-27T12:18:54.523Z,1.10
2023-03-27T12:21:28.728Z,1.10
2023-03-27T12:23:58.263Z,1.00
2023-03-27T12:26:21.443Z,1.10
2023-03-27T12:29:01.149Z,1.08
2023-03-27T12:31:30.799Z,1.10
2023-03-27T12:34:12.098Z,1.30
2023-03-27T12:36:35.167Z,1.40
2023-03-27T12:38:55.871Z,1.20
2023-03-27T12:41:21.734Z,1.20
2023-03-27T12:43:46.532Z,2.28
2023-03-27T12:46:31.104Z,1.17
2023-03-27T12:48:54.509Z,1.33
2023-03-27T12:51:19.187Z,1.45
2023-03-27T12:53:39.445Z,1.20
2023-03-27T12:56:18.831Z,1.63
2023-03-27T12:58:39.681Z,1.30
2023-03-27T13:01:01.229Z,1.60
2023-03-27T13:03:39.977Z,1.27
2023-03-27T13:06:00.268Z,1.33
2023-03-27T13:08:44.763Z,1.45
2023-03-27T13:11:17.338Z,1.20
2023-03-27T13:13:55.937Z,1.48
2023-03-27T13:16:34.972Z,1.50
2023-03-27T13:19:18.725Z,1.40
2023-03-27T13:21:57.729Z,1.20
2023-03-27T13:24:36.773Z,1.15
2023-03-27T13:26:57.639Z,1.02
2023-03-27T13:29:22.203Z,1.20
2023-03-27T13:31:45.585Z,1.40
2023-03-27T13:34:11.985Z,1.50
2023-03-27T13:36:32.828Z,1.40
2023-03-27T13:38:53.036Z,2.05
2023-03-27T13:41:31.958Z,1.25
2023-03-27T13:43:53.031Z,1.08
2023-03-27T13:46:18.385Z,1.30
2023-03-27T13:48:47.763Z,1.77
2023-03-27T13:51:08.592Z,1.20
2023-03-27T13:53:40.718Z,1.05
2023-03-27T13:56:09.811Z,1.35
2023-03-27T13:58:32.865Z,1.20
2023-03-27T14:01:08.978Z,1.20
2023-03-27T14:03:52.609Z,1.30
2023-03-27T14:06:25.394Z,1.45
2023-03-27T14:08:51.489Z,1.20
2023-03-27T14:11:20.981Z,1.67
2023-03-27T14:13:48.990Z,1.63
2023-03-27T14:16:27.944Z,1.05
2023-03-27T14:18:55.160Z,1.20
2023-03-27T14:21:21.987Z,1.40
2023-03-27T14:23:51.828Z,1.20
2023-03-27T14:26:23.919Z,1.10
2023-03-27T14:28:50.768Z,4.28
2023-03-27T14:31:14.088Z,1.20
2023-03-27T14:33:34.643Z,1.30
2023-03-27T14:35:56.736Z,2.90
2023-03-27T14:38:24.147Z,1.40
2023-03-27T14:40:51.278Z,0.93
2023-03-27T14:43:12.312Z,1.10
2023-03-27T14:45:33.612Z,1.30
2023-03-27T14:47:59.448Z,1.00
2023-03-27T14:50:20.114Z,1.00
2023-03-27T14:52:41.258Z,1.10
2023-03-27T14:55:01.915Z,1.00
2023-03-27T14:57:25.010Z,1.27
2023-03-27T14:59:46.010Z,1.10
2023-03-27T15:02:11.908Z,1.10
2023-03-27T15:04:33.566Z,1.35
2023-03-27T15:07:12.479Z,1.25
2023-03-27T15:09:33.171Z,1.10
2023-03-27T15:11:54.562Z,1.40
2023-03-27T15:14:20.186Z,1.58
2023-03-27T15:16:40.640Z,1.45
2023-03-27T15:19:04.161Z,2.50
2023-03-27T15:21:38.232Z,1.00
2023-03-27T15:24:05.344Z,1.20
2023-03-27T15:26:30.872Z,1.10
2023-03-27T15:28:50.819Z,1.42
2023-03-27T15:31:11.188Z,1.30
2023-03-27T15:33:40.543Z,1.40
2023-03-27T15:36:03.089Z,1.30
2023-03-27T15:38:25.628Z,1.20
2023-03-27T15:40:47.141Z,1.10
2023-03-27T15:43:13.399Z,1.42
2023-03-27T15:45:52.471Z,1.20
2023-03-27T15:48:16.072Z,1.00
2023-03-27T15:50:37.015Z,1.08
2023-03-27T15:53:00.683Z,1.10
2023-03-27T15:55:38.230Z,1.48
2023-03-27T15:57:58.490Z,1.20
2023-03-27T16:00:18.973Z,1.20
2023-03-27T16:02:39.958Z,1.48
2023-03-27T16:05:00.502Z,2.75
2023-03-27T16:07:20.997Z,1.10
2023-03-27T16:09:48.828Z,1.20
2023-03-27T16:12:10.735Z,1.10
2023-03-27T16:14:32.584Z,1.90
2023-03-27T16:17:09.265Z,1.00
2023-03-27T16:19:40.966Z,1.25
2023-03-27T16:22:01.592Z,1.40
2023-03-27T16:24:21.773Z,1.10
2023-03-27T16:26:41.970Z,1.65
2023-03-27T16:29:04.162Z,1.10
2023-03-27T16:31:24.770Z,1.33
2023-03-27T16:33:45.600Z,1.00
2023-03-27T16:36:06.918Z,1.20
2023-03-27T16:38:27.341Z,1.10
2023-03-27T16:40:48.301Z,1.10
2023-03-27T16:43:08.385Z,1.10
2023-03-27T16:45:28.776Z,1.20
2023-03-27T16:47:52.296Z,1.00
2023-03-27T16:50:18.471Z,1.10
2023-03-27T16:52:38.916Z,1.15
2023-03-27T16:54:59.018Z,1.10
2023-03-27T16:57:19.220Z,1.10
2023-03-27T16:59:39.326Z,1.10
2023-03-27T17:01:59.537Z,1.00
2023-03-27T17:04:19.970Z,1.00
2023-03-27T17:06:40.607Z,1.00
2023-03-27T17:09:00.867Z,1.10
2023-03-27T17:11:22.220Z,1.10
2023-03-27T17:13:43.566Z,1.15
2023-03-27T17:16:04.729Z,1.00
2023-03-27T17:18:26.002Z,1.10
2023-03-27T17:20:46.073Z,1.33
2023-03-27T17:23:06.429Z,1.20
2023-03-27T17:25:27.176Z,1.20
2023-03-27T17:27:47.376Z,1.17
2023-03-27T17:30:07.835Z,1.30
2023-03-27T17:32:28.467Z,1.27
2023-03-27T17:34:51.685Z,1.60
2023-03-27T17:37:11.950Z,1.50
2023-03-27T17:39:33.287Z,1.60
2023-03-27T17:41:53.680Z,1.70
2023-03-27T17:44:13.695Z,1.85
2023-03-27T17:46:33.973Z,1.55
2023-03-27T17:48:53.982Z,1.73
2023-03-27T17:51:14.261Z,2.05
2023-03-27T17:53:34.352Z,2.45
2023-03-27T17:55:55.524Z,2.28
2023-03-27T17:58:18.081Z,1.92
2023-03-27T18:00:39.246Z,6.60
2023-03-27T18:02:59.823Z,7.28
2023-03-27T18:05:20.278Z,5.63
2023-03-27T18:07:40.455Z,3.83
2023-03-27T18:10:00.841Z,4.57
2023-03-27T18:12:20.951Z,4.75
2023-03-27T18:14:41.787Z,3.63
2023-03-27T18:17:01.975Z,2.88
2023-03-27T18:19:24.442Z,3.03
2023-03-27T18:21:44.969Z,2.72
2023-03-27T18:24:04.947Z,5.18
2023-03-27T18:26:25.303Z,7.20
2023-03-27T18:28:45.893Z,2.20
2023-03-27T18:31:10.814Z,2.00
2023-03-27T18:33:31.319Z,2.70
2023-03-27T18:35:56.098Z,2.22
2023-03-27T18:38:17.553Z,2.35
2023-03-27T18:40:37.518Z,1.90
2023-03-27T18:42:57.747Z,1.90
2023-03-27T18:45:18.033Z,1.50
2023-03-27T18:47:38.678Z,1.90
2023-03-27T18:49:59.003Z,1.65
2023-03-27T18:52:19.196Z,2.05
2023-03-27T18:54:39.334Z,3.22
2023-03-27T18:56:59.889Z,4.35
2023-03-27T18:59:21.901Z,6.38
2023-03-27T19:01:41.895Z,7.28
2023-03-27T19:04:03.291Z,11.00
2023-03-27T19:06:24.714Z,12.82
2023-03-27T19:08:45.081Z,17.75
2023-03-27T19:11:08.884Z,7.50
2023-03-27T19:13:28.919Z,5.68
2023-03-27T19:15:49.212Z,4.80
2023-03-27T19:18:09.381Z,5.53
2023-03-27T19:20:29.604Z,7.25
2023-03-27T19:22:49.681Z,10.68
2023-03-27T19:25:10.224Z,9.95
2023-03-27T19:27:39.080Z,11.82
2023-03-27T19:29:59.748Z,11.05
2023-03-27T19:32:20.074Z,10.82
2023-03-27T19:34:43.145Z,11.35
2023-03-27T19:37:03.528Z,10.65
2023-03-27T19:39:23.531Z,7.57
2023-03-27T19:41:44.797Z,2.60
2023-03-27T19:44:05.261Z,2.45
2023-03-27T19:46:25.824Z,2.30
2023-03-27T19:48:50.634Z,3.22
2023-03-27T19:51:10.625Z,8.77
2023-03-27T19:53:31.840Z,9.23
2023-03-27T19:55:52.145Z,11.10
2023-03-27T19:58:12.456Z,11.13
2023-03-27T20:00:32.528Z,11.60
2023-03-27T20:02:53.104Z,15.70
2023-03-27T20:05:13.482Z,10.65
2023-03-27T20:07:33.816Z,11.10
2023-03-27T20:09:53.955Z,10.15
2023-03-27T20:12:14.128Z,9.30
2023-03-27T20:14:34.528Z,9.32
2023-03-27T20:16:54.747Z,6.07
2023-03-27T20:19:16.036Z,8.55
2023-03-27T20:21:38.314Z,10.90
2023-03-27T20:23:58.342Z,5.55
2023-03-27T20:26:18.878Z,6.07
2023-03-27T20:28:38.882Z,5.88
2023-03-27T20:31:03.551Z,4.82
2023-03-27T20:33:23.701Z,6.68
2023-03-27T20:35:44.085Z,11.27
2023-03-27T20:38:04.927Z,6.10
2023-03-27T20:40:25.962Z,9.88
2023-03-27T20:42:53.470Z,10.18
2023-03-27T20:45:18.765Z,6.65
2023-03-27T20:47:38.790Z,5.10
2023-03-27T20:50:02.892Z,6.63
2023-03-27T20:52:25.413Z,7.05
2023-03-27T20:54:46.978Z,4.13
2023-03-27T20:57:07.946Z,2.63
2023-03-27T20:59:28.690Z,2.40
2023-03-27T21:01:48.689Z,1.67
2023-03-27T21:04:10.088Z,2.80
2023-03-27T21:06:30.481Z,2.35
2023-03-27T21:08:50.441Z,2.60
2023-03-27T21:11:10.519Z,2.35
2023-03-27T21:13:30.805Z,2.20
2023-03-27T21:15:50.711Z,2.20
2023-03-27T21:18:10.835Z,2.30
2023-03-27T21:20:32.739Z,2.70
2023-03-27T21:22:54.870Z,2.17
2023-03-27T21:25:15.049Z,2.25
2023-03-27T21:27:34.990Z,2.80
2023-03-27T21:29:55.091Z,2.35
2023-03-27T21:32:15.305Z,2.63
2023-03-27T21:34:35.502Z,2.83
2023-03-27T21:36:57.424Z,2.65
2023-03-27T21:39:17.560Z,2.30
2023-03-27T21:41:37.705Z,2.88
2023-03-27T21:43:57.883Z,2.53
2023-03-27T21:46:18.058Z,3.33
2023-03-27T21:48:40.014Z,2.55
2023-03-27T21:51:04.692Z,3.00
2023-03-27T21:53:24.973Z,3.38
2023-03-27T21:55:46.199Z,2.95
2023-03-27T21:58:06.531Z,3.00
2023-03-27T22:00:26.887Z,3.17
2023-03-27T22:02:47.319Z,2.70
2023-03-27T22:05:07.790Z,3.60
2023-03-27T22:07:27.728Z,3.30
2023-03-27T22:09:47.889Z,2.80
2023-03-27T22:12:08.111Z,2.80
2023-03-27T22:14:28.606Z,2.92
2023-03-27T22:16:48.694Z,3.05
2023-03-27T22:19:09.193Z,3.05
2023-03-27T22:21:30.007Z,3.35
2023-03-27T22:23:50.615Z,2.63
2023-03-27T22:26:11.394Z,3.47
2023-03-27T22:28:31.665Z,3.10
2023-03-27T22:30:51.666Z,3.38
2023-03-27T22:33:11.687Z,2.83
2023-03-27T22:35:31.797Z,3.17
2023-03-27T22:37:51.918Z,3.00
2023-03-27T22:40:12.263Z,3.65
2023-03-27T22:42:32.513Z,3.00
2023-03-27T22:44:52.631Z,2.97
2023-03-27T22:47:12.901Z,3.55
2023-03-27T22:49:35.281Z,3.45
2023-03-27T22:51:55.640Z,3.70
2023-03-27T22:54:17.786Z,3.00
2023-03-27T22:56:37.821Z,3.80
2023-03-27T22:58:58.092Z,3.45
2023-03-27T23:01:18.094Z,3.20
2023-03-27T23:03:38.348Z,2.75
2023-03-27T23:05:59.043Z,3.28
2023-03-27T23:08:20.288Z,3.42
2023-03-27T23:10:40.820Z,2.90
2023-03-27T23:13:01.530Z,3.47
2023-03-27T23:15:30.273Z,3.25
2023-03-27T23:17:51.254Z,2.67
2023-03-27T23:20:11.445Z,2.65
2023-03-27T23:22:31.801Z,3.13
2023-03-27T23:24:51.800Z,3.22
2023-03-27T23:27:12.096Z,3.55
2023-03-27T23:29:32.231Z,3.50
2023-03-27T23:31:52.306Z,2.67
2023-03-27T23:34:12.155Z,2.90
2023-03-27T23:36:32.319Z,3.33
2023-03-27T23:38:53.073Z,2.95
2023-03-27T23:41:14.448Z,3.72
2023-03-27T23:43:35.474Z,3.30
2023-03-27T23:45:56.188Z,3.38
2023-03-27T23:48:17.168Z,4.20
2023-03-27T23:50:37.268Z,4.00
2023-03-27T23:52:57.543Z,3.33
2023-03-27T23:55:17.720Z,3.35
2023-03-27T23:57:37.773Z,3.85
2023-03-27T23:59:57.919Z,3.47
